sensor_id;sensor_type;location;lat;lon;timestamp;P1;durP1;ratioP1;P2;durP2;ratioP2
76765;SDS011;65707;52.362;6.588;2024-03-25T00:01:45;19.08;;;1.80;;
76765;SDS011;65707;52.362;6.588;2024-03-25T00:04:11;18.58;;;2.88;;
76765;SDS011;65707;52.362;6.588;2024-03-25T00:06:37;16.73;;;2.42;;
76765;SDS011;65707;52.362;6.588;2024-03-25T00:09:04;20.20;;;2.20;;
76765;SDS011;65707;52.362;6.588;2024-03-25T00:11:32;18.73;;;2.35;;
76765;SDS011;65707;52.362;6.588;2024-03-25T00:14:00;16.13;;;2.20;;
76765;SDS011;65707;52.362;6.588;2024-03-25T00:16:26;18.38;;;2.28;;
76765;SDS011;65707;52.362;6.588;2024-03-25T00:18:53;20.55;;;2.03;;
76765;SDS011;65707;52.362;6.588;2024-03-25T00:21:18;17.10;;;1.85;;
76765;SDS011;65707;52.362;6.588;2024-03-25T00:23:45;18.90;;;2.22;;
76765;SDS011;65707;52.362;6.588;2024-03-25T00:26:11;21.05;;;2.22;;
76765;SDS011;65707;52.362;6.588;2024-03-25T00:28:37;18.27;;;2.25;;
76765;SDS011;65707;52.362;6.588;2024-03-25T00:31:05;17.17;;;2.92;;
76765;SDS011;65707;52.362;6.588;2024-03-25T00:33:32;14.10;;;1.92;;
76765;SDS011;65707;52.362;6.588;2024-03-25T00:35:57;12.25;;;1.77;;
76765;SDS011;65707;52.362;6.588;2024-03-25T00:38:24;19.92;;;2.30;;
76765;SDS011;65707;52.362;6.588;2024-03-25T00:40:50;16.60;;;1.85;;
76765;SDS011;65707;52.362;6.588;2024-03-25T00:43:17;15.45;;;2.50;;
76765;SDS011;65707;52.362;6.588;2024-03-25T00:45:43;24.08;;;3.00;;
76765;SDS011;65707;52.362;6.588;2024-03-25T00:48:11;16.08;;;2.20;;
76765;SDS011;65707;52.362;6.588;2024-03-25T00:50:36;19.75;;;1.80;;
76765;SDS011;65707;52.362;6.588;2024-03-25T00:53:03;16.48;;;2.00;;
76765;SDS011;65707;52.362;6.588;2024-03-25T00:55:29;14.30;;;2.00;;
76765;SDS011;65707;52.362;6.588;2024-03-25T00:57:55;16.65;;;2.13;;
76765;SDS011;65707;52.362;6.588;2024-03-25T01:00:21;15.15;;;2.17;;
76765;SDS011;65707;52.362;6.588;2024-03-25T01:02:48;17.08;;;2.33;;
76765;SDS011;65707;52.362;6.588;2024-03-25T01:05:15;16.08;;;2.15;;
76765;SDS011;65707;52.362;6.588;2024-03-25T01:07:43;19.73;;;3.67;;
76765;SDS011;65707;52.362;6.588;2024-03-25T01:10:09;18.20;;;2.15;;
76765;SDS011;65707;52.362;6.588;2024-03-25T01:12:35;21.23;;;2.40;;
76765;SDS011;65707;52.362;6.588;2024-03-25T01:15:01;22.35;;;2.10;;
76765;SDS011;65707;52.362;6.588;2024-03-25T01:17:30;17.25;;;2.00;;
76765;SDS011;65707;52.362;6.588;2024-03-25T01:19:56;18.27;;;2.10;;
76765;SDS011;65707;52.362;6.588;2024-03-25T01:22:24;21.40;;;2.30;;
76765;SDS011;65707;52.362;6.588;2024-03-25T01:24:49;17.08;;;2.40;;
76765;SDS011;65707;52.362;6.588;2024-03-25T01:27:16;14.57;;;1.75;;
76765;SDS011;65707;52.362;6.588;2024-03-25T01:29:42;19.55;;;1.88;;
76765;SDS011;65707;52.362;6.588;2024-03-25T01:32:08;21.20;;;1.98;;
76765;SDS011;65707;52.362;6.588;2024-03-25T01:34:34;21.95;;;2.20;;
76765;SDS011;65707;52.362;6.588;2024-03-25T01:37:01;13.95;;;2.10;;
76765;SDS011;65707;52.362;6.588;2024-03-25T01:39:28;22.63;;;2.13;;
76765;SDS011;65707;52.362;6.588;2024-03-25T01:41:54;17.48;;;2.15;;
76765;SDS011;65707;52.362;6.588;2024-03-25T01:44:20;17.77;;;2.13;;
76765;SDS011;65707;52.362;6.588;2024-03-25T01:46:47;19.05;;;2.05;;
76765;SDS011;65707;52.362;6.588;2024-03-25T01:49:13;17.30;;;2.70;;
76765;SDS011;65707;52.362;6.588;2024-03-25T01:51:40;19.83;;;2.17;;
76765;SDS011;65707;52.362;6.588;2024-03-25T01:54:07;16.30;;;2.10;;
76765;SDS011;65707;52.362;6.588;2024-03-25T01:56:36;16.90;;;1.75;;
76765;SDS011;65707;52.362;6.588;2024-03-25T01:59:03;16.38;;;2.13;;
76765;SDS011;65707;52.362;6.588;2024-03-25T02:01:30;17.30;;;2.22;;
76765;SDS011;65707;52.362;6.588;2024-03-25T02:03:57;16.45;;;2.20;;
76765;SDS011;65707;52.362;6.588;2024-03-25T02:06:24;14.98;;;2.10;;
76765;SDS011;65707;52.362;6.588;2024-03-25T02:08:52;18.95;;;2.67;;
76765;SDS011;65707;52.362;6.588;2024-03-25T02:11:21;14.63;;;1.95;;
76765;SDS011;65707;52.362;6.588;2024-03-25T02:13:49;18.40;;;2.22;;
76765;SDS011;65707;52.362;6.588;2024-03-25T02:16:17;18.38;;;1.90;;
76765;SDS011;65707;52.362;6.588;2024-03-25T02:18:43;12.68;;;1.50;;
76765;SDS011;65707;52.362;6.588;2024-03-25T02:21:09;21.20;;;2.20;;
76765;SDS011;65707;52.362;6.588;2024-03-25T02:23:36;18.65;;;2.63;;
76765;SDS011;65707;52.362;6.588;2024-03-25T02:26:06;19.15;;;2.15;;
76765;SDS011;65707;52.362;6.588;2024-03-25T02:28:32;23.48;;;2.30;;
76765;SDS011;65707;52.362;6.588;2024-03-25T02:30:59;22.05;;;2.88;;
76765;SDS011;65707;52.362;6.588;2024-03-25T02:33:24;14.40;;;1.85;;
76765;SDS011;65707;52.362;6.588;2024-03-25T02:35:51;15.48;;;2.17;;
76765;SDS011;65707;52.362;6.588;2024-03-25T02:38:17;18.58;;;1.98;;
76765;SDS011;65707;52.362;6.588;2024-03-25T02:40:44;14.32;;;1.92;;
76765;SDS011;65707;52.362;6.588;2024-03-25T02:43:11;24.60;;;3.83;;
76765;SDS011;65707;52.362;6.588;2024-03-25T02:45:38;15.63;;;2.50;;
76765;SDS011;65707;52.362;6.588;2024-03-25T02:48:04;14.15;;;1.80;;
76765;SDS011;65707;52.362;6.588;2024-03-25T02:50:31;17.33;;;2.08;;
76765;SDS011;65707;52.362;6.588;2024-03-25T02:52:57;24.38;;;2.40;;
76765;SDS011;65707;52.362;6.588;2024-03-25T02:55:23;22.20;;;2.53;;
76765;SDS011;65707;52.362;6.588;2024-03-25T02:57:49;18.90;;;2.10;;
76765;SDS011;65707;52.362;6.588;2024-03-25T03:00:17;17.75;;;2.47;;
76765;SDS011;65707;52.362;6.588;2024-03-25T03:02:43;27.35;;;2.38;;
76765;SDS011;65707;52.362;6.588;2024-03-25T03:05:10;17.95;;;2.28;;
76765;SDS011;65707;52.362;6.588;2024-03-25T03:07:35;20.95;;;2.50;;
76765;SDS011;65707;52.362;6.588;2024-03-25T03:10:02;19.75;;;2.03;;
76765;SDS011;65707;52.362;6.588;2024-03-25T03:12:28;17.50;;;2.30;;
76765;SDS011;65707;52.362;6.588;2024-03-25T03:14:55;17.45;;;2.35;;
76765;SDS011;65707;52.362;6.588;2024-03-25T03:17:22;29.13;;;2.92;;
76765;SDS011;65707;52.362;6.588;2024-03-25T03:19:49;20.25;;;2.50;;
76765;SDS011;65707;52.362;6.588;2024-03-25T03:22:14;18.88;;;2.13;;
76765;SDS011;65707;52.362;6.588;2024-03-25T03:24:41;20.38;;;2.22;;
76765;SDS011;65707;52.362;6.588;2024-03-25T03:27:07;22.35;;;2.30;;
76765;SDS011;65707;52.362;6.588;2024-03-25T03:29:34;20.13;;;2.20;;
76765;SDS011;65707;52.362;6.588;2024-03-25T03:31:59;27.42;;;2.30;;
76765;SDS011;65707;52.362;6.588;2024-03-25T03:34:27;18.63;;;2.05;;
76765;SDS011;65707;52.362;6.588;2024-03-25T03:36:53;15.48;;;2.15;;
76765;SDS011;65707;52.362;6.588;2024-03-25T03:39:20;13.77;;;2.17;;
76765;SDS011;65707;52.362;6.588;2024-03-25T03:41:46;17.23;;;2.00;;
76765;SDS011;65707;52.362;6.588;2024-03-25T03:44:12;19.95;;;2.65;;
76765;SDS011;65707;52.362;6.588;2024-03-25T03:46:40;21.20;;;2.35;;
76765;SDS011;65707;52.362;6.588;2024-03-25T03:49:06;22.30;;;3.33;;
76765;SDS011;65707;52.362;6.588;2024-03-25T03:51:34;28.40;;;2.55;;
76765;SDS011;65707;52.362;6.588;2024-03-25T03:54:00;20.35;;;2.90;;
76765;SDS011;65707;52.362;6.588;2024-03-25T03:56:26;20.08;;;2.80;;
76765;SDS011;65707;52.362;6.588;2024-03-25T03:58:53;18.48;;;2.63;;
76765;SDS011;65707;52.362;6.588;2024-03-25T04:01:18;20.15;;;2.70;;
76765;SDS011;65707;52.362;6.588;2024-03-25T04:03:45;25.92;;;2.80;;
76765;SDS011;65707;52.362;6.588;2024-03-25T04:06:11;18.23;;;2.83;;
76765;SDS011;65707;52.362;6.588;2024-03-25T04:08:40;18.10;;;2.40;;
76765;SDS011;65707;52.362;6.588;2024-03-25T04:11:06;19.40;;;2.30;;
76765;SDS011;65707;52.362;6.588;2024-03-25T04:13:34;21.65;;;2.58;;
76765;SDS011;65707;52.362;6.588;2024-03-25T04:16:01;19.65;;;2.55;;
76765;SDS011;65707;52.362;6.588;2024-03-25T04:18:29;19.27;;;3.10;;
76765;SDS011;65707;52.362;6.588;2024-03-25T04:20:56;25.75;;;2.90;;
76765;SDS011;65707;52.362;6.588;2024-03-25T04:23:23;22.05;;;3.20;;
76765;SDS011;65707;52.362;6.588;2024-03-25T04:25:51;20.63;;;2.83;;
76765;SDS011;65707;52.362;6.588;2024-03-25T04:28:18;18.75;;;3.22;;
76765;SDS011;65707;52.362;6.588;2024-03-25T04:30:50;21.90;;;3.05;;
76765;SDS011;65707;52.362;6.588;2024-03-25T04:33:18;16.73;;;2.85;;
76765;SDS011;65707;52.362;6.588;2024-03-25T04:35:44;20.63;;;2.90;;
76765;SDS011;65707;52.362;6.588;2024-03-25T04:38:12;27.50;;;3.05;;
76765;SDS011;65707;52.362;6.588;2024-03-25T04:40:38;18.63;;;3.00;;
76765;SDS011;65707;52.362;6.588;2024-03-25T04:43:05;18.33;;;2.95;;
76765;SDS011;65707;52.362;6.588;2024-03-25T04:45:31;14.68;;;2.40;;
76765;SDS011;65707;52.362;6.588;2024-03-25T04:47:57;20.40;;;2.80;;
76765;SDS011;65707;52.362;6.588;2024-03-25T04:50:22;20.40;;;2.55;;
76765;SDS011;65707;52.362;6.588;2024-03-25T04:52:48;22.13;;;2.80;;
76765;SDS011;65707;52.362;6.588;2024-03-25T04:55:14;17.23;;;2.28;;
76765;SDS011;65707;52.362;6.588;2024-03-25T04:57:40;20.35;;;2.78;;
76765;SDS011;65707;52.362;6.588;2024-03-25T05:00:08;28.95;;;3.25;;
76765;SDS011;65707;52.362;6.588;2024-03-25T05:02:36;13.50;;;2.20;;
76765;SDS011;65707;52.362;6.588;2024-03-25T05:05:02;19.17;;;2.38;;
76765;SDS011;65707;52.362;6.588;2024-03-25T05:07:28;17.45;;;2.35;;
76765;SDS011;65707;52.362;6.588;2024-03-25T05:09:53;23.20;;;2.83;;
76765;SDS011;65707;52.362;6.588;2024-03-25T05:12:19;20.73;;;3.08;;
76765;SDS011;65707;52.362;6.588;2024-03-25T05:14:45;21.40;;;2.95;;
76765;SDS011;65707;52.362;6.588;2024-03-25T05:17:12;32.58;;;3.10;;
76765;SDS011;65707;52.362;6.588;2024-03-25T05:19:38;24.20;;;2.90;;
76765;SDS011;65707;52.362;6.588;2024-03-25T05:22:03;20.15;;;2.40;;
76765;SDS011;65707;52.362;6.588;2024-03-25T05:24:29;19.10;;;3.03;;
76765;SDS011;65707;52.362;6.588;2024-03-25T05:26:56;20.65;;;2.30;;
76765;SDS011;65707;52.362;6.588;2024-03-25T05:29:21;23.23;;;2.50;;
76765;SDS011;65707;52.362;6.588;2024-03-25T05:31:55;16.65;;;2.50;;
76765;SDS011;65707;52.362;6.588;2024-03-25T05:34:24;20.67;;;2.70;;
76765;SDS011;65707;52.362;6.588;2024-03-25T05:36:52;17.85;;;2.47;;
76765;SDS011;65707;52.362;6.588;2024-03-25T05:39:18;18.02;;;2.88;;
76765;SDS011;65707;52.362;6.588;2024-03-25T05:41:45;18.73;;;2.63;;
76765;SDS011;65707;52.362;6.588;2024-03-25T05:44:10;23.17;;;2.78;;
76765;SDS011;65707;52.362;6.588;2024-03-25T05:46:36;19.45;;;2.33;;
76765;SDS011;65707;52.362;6.588;2024-03-25T05:49:03;15.18;;;2.50;;
76765;SDS011;65707;52.362;6.588;2024-03-25T05:51:31;17.58;;;3.05;;
76765;SDS011;65707;52.362;6.588;2024-03-25T05:53:58;21.83;;;2.50;;
76765;SDS011;65707;52.362;6.588;2024-03-25T05:56:24;17.83;;;2.50;;
76765;SDS011;65707;52.362;6.588;2024-03-25T05:58:49;23.25;;;2.25;;
76765;SDS011;65707;52.362;6.588;2024-03-25T06:01:15;13.35;;;2.00;;
76765;SDS011;65707;52.362;6.588;2024-03-25T06:03:41;20.63;;;3.00;;
76765;SDS011;65707;52.362;6.588;2024-03-25T06:06:07;19.83;;;2.80;;
76765;SDS011;65707;52.362;6.588;2024-03-25T06:08:34;22.50;;;2.53;;
76765;SDS011;65707;52.362;6.588;2024-03-25T06:11:00;23.85;;;2.50;;
76765;SDS011;65707;52.362;6.588;2024-03-25T06:13:26;19.95;;;2.80;;
76765;SDS011;65707;52.362;6.588;2024-03-25T06:15:52;26.00;;;3.95;;
76765;SDS011;65707;52.362;6.588;2024-03-25T06:18:18;16.77;;;2.50;;
76765;SDS011;65707;52.362;6.588;2024-03-25T06:20:44;20.40;;;3.17;;
76765;SDS011;65707;52.362;6.588;2024-03-25T06:23:10;17.25;;;2.50;;
76765;SDS011;65707;52.362;6.588;2024-03-25T06:25:37;15.82;;;2.55;;
76765;SDS011;65707;52.362;6.588;2024-03-25T06:28:03;24.40;;;3.00;;
76765;SDS011;65707;52.362;6.588;2024-03-25T06:30:30;25.00;;;3.00;;
76765;SDS011;65707;52.362;6.588;2024-03-25T06:33:14;14.40;;;2.38;;
76765;SDS011;65707;52.362;6.588;2024-03-25T06:35:58;19.95;;;3.10;;
76765;SDS011;65707;52.362;6.588;2024-03-25T06:38:24;19.50;;;2.55;;
76765;SDS011;65707;52.362;6.588;2024-03-25T06:40:51;16.95;;;3.00;;
76765;SDS011;65707;52.362;6.588;2024-03-25T06:43:17;20.00;;;3.15;;
76765;SDS011;65707;52.362;6.588;2024-03-25T06:45:42;18.40;;;3.00;;
76765;SDS011;65707;52.362;6.588;2024-03-25T06:48:08;21.45;;;2.83;;
76765;SDS011;65707;52.362;6.588;2024-03-25T06:50:34;15.60;;;3.15;;
76765;SDS011;65707;52.362;6.588;2024-03-25T06:53:00;19.88;;;3.22;;
76765;SDS011;65707;52.362;6.588;2024-03-25T06:55:25;10.70;;;2.13;;
76765;SDS011;65707;52.362;6.588;2024-03-25T06:57:53;26.13;;;2.78;;
76765;SDS011;65707;52.362;6.588;2024-03-25T07:00:18;15.52;;;3.08;;
76765;SDS011;65707;52.362;6.588;2024-03-25T07:02:44;16.75;;;2.42;;
76765;SDS011;65707;52.362;6.588;2024-03-25T07:05:10;20.00;;;3.25;;
76765;SDS011;65707;52.362;6.588;2024-03-25T07:07:36;14.55;;;2.42;;
76765;SDS011;65707;52.362;6.588;2024-03-25T07:10:02;16.80;;;2.58;;
76765;SDS011;65707;52.362;6.588;2024-03-25T07:12:28;20.00;;;2.78;;
76765;SDS011;65707;52.362;6.588;2024-03-25T07:14:55;23.88;;;2.60;;
76765;SDS011;65707;52.362;6.588;2024-03-25T07:17:21;18.95;;;2.38;;
76765;SDS011;65707;52.362;6.588;2024-03-25T07:19:46;19.92;;;2.40;;
76765;SDS011;65707;52.362;6.588;2024-03-25T07:22:12;21.30;;;2.70;;
76765;SDS011;65707;52.362;6.588;2024-03-25T07:24:38;18.02;;;2.72;;
76765;SDS011;65707;52.362;6.588;2024-03-25T07:27:04;21.35;;;2.50;;
76765;SDS011;65707;52.362;6.588;2024-03-25T07:29:30;18.08;;;2.75;;
76765;SDS011;65707;52.362;6.588;2024-03-25T07:31:57;13.93;;;2.50;;
76765;SDS011;65707;52.362;6.588;2024-03-25T07:34:23;15.63;;;2.38;;
76765;SDS011;65707;52.362;6.588;2024-03-25T07:36:48;14.90;;;2.40;;
76765;SDS011;65707;52.362;6.588;2024-03-25T07:39:14;17.60;;;2.22;;
76765;SDS011;65707;52.362;6.588;2024-03-25T07:41:40;20.65;;;2.70;;
76765;SDS011;65707;52.362;6.588;2024-03-25T07:44:06;19.67;;;2.70;;
76765;SDS011;65707;52.362;6.588;2024-03-25T07:46:32;16.65;;;2.08;;
76765;SDS011;65707;52.362;6.588;2024-03-25T07:48:59;17.10;;;2.40;;
76765;SDS011;65707;52.362;6.588;2024-03-25T07:51:25;15.93;;;2.42;;
76765;SDS011;65707;52.362;6.588;2024-03-25T07:53:50;23.30;;;3.10;;
76765;SDS011;65707;52.362;6.588;2024-03-25T07:56:16;20.98;;;2.65;;
76765;SDS011;65707;52.362;6.588;2024-03-25T07:58:43;20.65;;;2.70;;
76765;SDS011;65707;52.362;6.588;2024-03-25T08:01:08;19.75;;;3.72;;
76765;SDS011;65707;52.362;6.588;2024-03-25T08:03:34;15.32;;;2.53;;
76765;SDS011;65707;52.362;6.588;2024-03-25T08:06:01;18.08;;;2.92;;
76765;SDS011;65707;52.362;6.588;2024-03-25T08:08:28;17.05;;;2.38;;
76765;SDS011;65707;52.362;6.588;2024-03-25T08:10:53;13.00;;;2.67;;
76765;SDS011;65707;52.362;6.588;2024-03-25T08:13:19;13.85;;;2.55;;
76765;SDS011;65707;52.362;6.588;2024-03-25T08:15:45;13.45;;;2.40;;
76765;SDS011;65707;52.362;6.588;2024-03-25T08:18:11;10.50;;;2.55;;
76765;SDS011;65707;52.362;6.588;2024-03-25T08:20:37;16.40;;;2.55;;
76765;SDS011;65707;52.362;6.588;2024-03-25T08:23:04;17.63;;;3.35;;
76765;SDS011;65707;52.362;6.588;2024-03-25T08:25:30;11.10;;;1.83;;
76765;SDS011;65707;52.362;6.588;2024-03-25T08:27:56;15.05;;;2.40;;
76765;SDS011;65707;52.362;6.588;2024-03-25T08:30:21;12.75;;;1.90;;
76765;SDS011;65707;52.362;6.588;2024-03-25T08:32:47;15.82;;;2.30;;
76765;SDS011;65707;52.362;6.588;2024-03-25T08:35:13;13.23;;;2.05;;
76765;SDS011;65707;52.362;6.588;2024-03-25T08:37:39;16.40;;;2.15;;
76765;SDS011;65707;52.362;6.588;2024-03-25T08:40:07;11.70;;;1.95;;
76765;SDS011;65707;52.362;6.588;2024-03-25T08:42:34;16.63;;;2.50;;
76765;SDS011;65707;52.362;6.588;2024-03-25T08:45:00;16.80;;;2.45;;
76765;SDS011;65707;52.362;6.588;2024-03-25T08:47:26;16.60;;;2.92;;
76765;SDS011;65707;52.362;6.588;2024-03-25T08:49:52;11.82;;;2.78;;
76765;SDS011;65707;52.362;6.588;2024-03-25T08:52:17;13.05;;;2.67;;
76765;SDS011;65707;52.362;6.588;2024-03-25T08:54:43;15.30;;;3.05;;
76765;SDS011;65707;52.362;6.588;2024-03-25T08:57:10;13.35;;;2.08;;
76765;SDS011;65707;52.362;6.588;2024-03-25T08:59:36;14.98;;;3.05;;
76765;SDS011;65707;52.362;6.588;2024-03-25T09:02:02;13.23;;;2.30;;
76765;SDS011;65707;52.362;6.588;2024-03-25T09:04:28;13.95;;;2.45;;
76765;SDS011;65707;52.362;6.588;2024-03-25T09:06:53;11.90;;;2.30;;
76765;SDS011;65707;52.362;6.588;2024-03-25T09:09:19;9.95;;;2.03;;
76765;SDS011;65707;52.362;6.588;2024-03-25T09:12:00;16.85;;;2.80;;
76765;SDS011;65707;52.362;6.588;2024-03-25T09:14:27;14.18;;;2.47;;
76765;SDS011;65707;52.362;6.588;2024-03-25T09:16:53;11.95;;;2.70;;
76765;SDS011;65707;52.362;6.588;2024-03-25T09:19:18;9.52;;;1.98;;
76765;SDS011;65707;52.362;6.588;2024-03-25T09:21:44;10.73;;;2.45;;
76765;SDS011;65707;52.362;6.588;2024-03-25T09:24:10;11.85;;;1.70;;
76765;SDS011;65707;52.362;6.588;2024-03-25T09:26:35;11.07;;;2.00;;
76765;SDS011;65707;52.362;6.588;2024-03-25T09:29:01;12.27;;;2.17;;
76765;SDS011;65707;52.362;6.588;2024-03-25T09:31:29;10.20;;;1.60;;
76765;SDS011;65707;52.362;6.588;2024-03-25T09:33:54;8.65;;;1.30;;
76765;SDS011;65707;52.362;6.588;2024-03-25T09:36:20;9.68;;;1.48;;
76765;SDS011;65707;52.362;6.588;2024-03-25T09:38:46;11.00;;;1.80;;
76765;SDS011;65707;52.362;6.588;2024-03-25T09:41:12;11.88;;;1.85;;
76765;SDS011;65707;52.362;6.588;2024-03-25T09:43:40;9.70;;;1.85;;
76765;SDS011;65707;52.362;6.588;2024-03-25T09:46:10;11.45;;;1.83;;
76765;SDS011;65707;52.362;6.588;2024-03-25T09:48:37;12.32;;;1.75;;
76765;SDS011;65707;52.362;6.588;2024-03-25T09:51:04;11.50;;;1.60;;
76765;SDS011;65707;52.362;6.588;2024-03-25T09:53:30;9.48;;;1.67;;
76765;SDS011;65707;52.362;6.588;2024-03-25T09:55:56;10.27;;;2.25;;
76765;SDS011;65707;52.362;6.588;2024-03-25T09:58:22;9.43;;;1.70;;
76765;SDS011;65707;52.362;6.588;2024-03-25T10:00:51;9.30;;;1.30;;
76765;SDS011;65707;52.362;6.588;2024-03-25T10:03:17;7.00;;;1.58;;
76765;SDS011;65707;52.362;6.588;2024-03-25T10:05:44;9.23;;;1.70;;
76765;SDS011;65707;52.362;6.588;2024-03-25T10:08:10;6.93;;;1.33;;
76765;SDS011;65707;52.362;6.588;2024-03-25T10:10:36;10.63;;;2.03;;
76765;SDS011;65707;52.362;6.588;2024-03-25T10:13:02;10.25;;;1.80;;
76765;SDS011;65707;52.362;6.588;2024-03-25T10:15:28;9.38;;;1.45;;
76765;SDS011;65707;52.362;6.588;2024-03-25T10:17:54;10.32;;;1.50;;
76765;SDS011;65707;52.362;6.588;2024-03-25T10:20:20;9.88;;;1.50;;
76765;SDS011;65707;52.362;6.588;2024-03-25T10:22:47;11.90;;;1.67;;
76765;SDS011;65707;52.362;6.588;2024-03-25T10:25:20;9.23;;;1.65;;
76765;SDS011;65707;52.362;6.588;2024-03-25T10:27:54;8.50;;;1.60;;
76765;SDS011;65707;52.362;6.588;2024-03-25T10:30:21;11.00;;;1.45;;
76765;SDS011;65707;52.362;6.588;2024-03-25T10:32:57;10.07;;;1.80;;
76765;SDS011;65707;52.362;6.588;2024-03-25T10:35:25;8.27;;;1.50;;
76765;SDS011;65707;52.362;6.588;2024-03-25T10:37:55;8.55;;;1.33;;
76765;SDS011;65707;52.362;6.588;2024-03-25T10:40:24;9.88;;;1.73;;
76765;SDS011;65707;52.362;6.588;2024-03-25T10:42:55;8.75;;;1.35;;
76765;SDS011;65707;52.362;6.588;2024-03-25T10:45:28;10.45;;;1.52;;
76765;SDS011;65707;52.362;6.588;2024-03-25T10:47:57;9.48;;;1.95;;
76765;SDS011;65707;52.362;6.588;2024-03-25T10:50:26;8.40;;;1.55;;
76765;SDS011;65707;52.362;6.588;2024-03-25T10:52:56;7.78;;;1.20;;
76765;SDS011;65707;52.362;6.588;2024-03-25T10:55:24;8.77;;;1.48;;
76765;SDS011;65707;52.362;6.588;2024-03-25T10:57:51;9.98;;;1.60;;
76765;SDS011;65707;52.362;6.588;2024-03-25T11:00:19;7.70;;;1.25;;
76765;SDS011;65707;52.362;6.588;2024-03-25T11:02:48;9.65;;;1.67;;
76765;SDS011;65707;52.362;6.588;2024-03-25T11:05:15;8.10;;;1.50;;
76765;SDS011;65707;52.362;6.588;2024-03-25T11:07:42;8.50;;;2.03;;
76765;SDS011;65707;52.362;6.588;2024-03-25T11:10:10;7.57;;;1.40;;
76765;SDS011;65707;52.362;6.588;2024-03-25T11:12:36;10.25;;;1.60;;
76765;SDS011;65707;52.362;6.588;2024-03-25T11:15:04;5.80;;;1.27;;
76765;SDS011;65707;52.362;6.588;2024-03-25T11:17:32;8.68;;;1.50;;
76765;SDS011;65707;52.362;6.588;2024-03-25T11:20:11;8.80;;;1.73;;
76765;SDS011;65707;52.362;6.588;2024-03-25T11:22:47;7.47;;;1.40;;
76765;SDS011;65707;52.362;6.588;2024-03-25T11:25:18;9.18;;;1.60;;
76765;SDS011;65707;52.362;6.588;2024-03-25T11:27:46;7.57;;;1.55;;
76765;SDS011;65707;52.362;6.588;2024-03-25T11:30:13;10.88;;;1.70;;
76765;SDS011;65707;52.362;6.588;2024-03-25T11:32:43;6.07;;;1.33;;
76765;SDS011;65707;52.362;6.588;2024-03-25T11:35:11;8.07;;;1.60;;
76765;SDS011;65707;52.362;6.588;2024-03-25T11:37:40;9.00;;;1.70;;
76765;SDS011;65707;52.362;6.588;2024-03-25T11:40:07;8.07;;;1.52;;
76765;SDS011;65707;52.362;6.588;2024-03-25T11:42:36;9.50;;;1.60;;
76765;SDS011;65707;52.362;6.588;2024-03-25T11:45:04;7.07;;;1.50;;
76765;SDS011;65707;52.362;6.588;2024-03-25T11:47:31;10.23;;;1.50;;
76765;SDS011;65707;52.362;6.588;2024-03-25T11:49:57;7.75;;;1.40;;
76765;SDS011;65707;52.362;6.588;2024-03-25T11:52:23;10.70;;;1.73;;
76765;SDS011;65707;52.362;6.588;2024-03-25T11:54:55;8.80;;;1.30;;
76765;SDS011;65707;52.362;6.588;2024-03-25T11:57:21;7.90;;;1.30;;
76765;SDS011;65707;52.362;6.588;2024-03-25T11:59:49;8.65;;;1.55;;
76765;SDS011;65707;52.362;6.588;2024-03-25T12:02:15;9.38;;;1.80;;
76765;SDS011;65707;52.362;6.588;2024-03-25T12:04:44;6.90;;;1.52;;
76765;SDS011;65707;52.362;6.588;2024-03-25T12:07:11;8.00;;;1.50;;
76765;SDS011;65707;52.362;6.588;2024-03-25T12:09:38;5.82;;;1.25;;
76765;SDS011;65707;52.362;6.588;2024-03-25T12:12:22;9.70;;;1.23;;
76765;SDS011;65707;52.362;6.588;2024-03-25T12:14:51;7.95;;;1.58;;
76765;SDS011;65707;52.362;6.588;2024-03-25T12:17:18;5.78;;;0.85;;
76765;SDS011;65707;52.362;6.588;2024-03-25T12:19:45;8.82;;;1.67;;
76765;SDS011;65707;52.362;6.588;2024-03-25T12:22:24;7.00;;;1.23;;
76765;SDS011;65707;52.362;6.588;2024-03-25T12:24:50;7.65;;;1.33;;
76765;SDS011;65707;52.362;6.588;2024-03-25T12:27:16;11.52;;;1.30;;
76765;SDS011;65707;52.362;6.588;2024-03-25T12:29:42;7.57;;;1.42;;
76765;SDS011;65707;52.362;6.588;2024-03-25T12:32:10;6.80;;;1.23;;
76765;SDS011;65707;52.362;6.588;2024-03-25T12:34:36;6.68;;;1.10;;
76765;SDS011;65707;52.362;6.588;2024-03-25T12:37:02;9.27;;;1.90;;
76765;SDS011;65707;52.362;6.588;2024-03-25T12:39:28;10.57;;;1.35;;
76765;SDS011;65707;52.362;6.588;2024-03-25T12:41:54;8.32;;;1.40;;
76765;SDS011;65707;52.362;6.588;2024-03-25T12:44:20;8.00;;;1.70;;
76765;SDS011;65707;52.362;6.588;2024-03-25T12:46:46;9.15;;;1.77;;
76765;SDS011;65707;52.362;6.588;2024-03-25T12:49:13;6.43;;;1.50;;
76765;SDS011;65707;52.362;6.588;2024-03-25T12:51:39;9.48;;;1.50;;
76765;SDS011;65707;52.362;6.588;2024-03-25T12:54:05;8.02;;;1.33;;
76765;SDS011;65707;52.362;6.588;2024-03-25T12:56:30;8.27;;;1.60;;
76765;SDS011;65707;52.362;6.588;2024-03-25T12:58:56;9.20;;;1.50;;
76765;SDS011;65707;52.362;6.588;2024-03-25T13:01:22;9.27;;;1.50;;
76765;SDS011;65707;52.362;6.588;2024-03-25T13:03:48;8.77;;;1.42;;
76765;SDS011;65707;52.362;6.588;2024-03-25T13:06:15;7.93;;;1.35;;
76765;SDS011;65707;52.362;6.588;2024-03-25T13:08:41;9.75;;;1.42;;
76765;SDS011;65707;52.362;6.588;2024-03-25T13:11:06;8.73;;;1.52;;
76765;SDS011;65707;52.362;6.588;2024-03-25T13:13:33;7.53;;;1.88;;
76765;SDS011;65707;52.362;6.588;2024-03-25T13:15:58;9.38;;;1.40;;
76765;SDS011;65707;52.362;6.588;2024-03-25T13:18:24;8.45;;;1.73;;
76765;SDS011;65707;52.362;6.588;2024-03-25T13:20:50;7.68;;;1.30;;
76765;SDS011;65707;52.362;6.588;2024-03-25T13:23:17;8.70;;;1.50;;
76765;SDS011;65707;52.362;6.588;2024-03-25T13:25:43;7.55;;;1.35;;
76765;SDS011;65707;52.362;6.588;2024-03-25T13:28:08;7.90;;;1.42;;
76765;SDS011;65707;52.362;6.588;2024-03-25T13:30:34;9.90;;;1.65;;
76765;SDS011;65707;52.362;6.588;2024-03-25T13:33:00;13.00;;;3.08;;
76765;SDS011;65707;52.362;6.588;2024-03-25T13:35:26;17.42;;;4.88;;
76765;SDS011;65707;52.362;6.588;2024-03-25T13:37:52;7.95;;;1.60;;
76765;SDS011;65707;52.362;6.588;2024-03-25T13:40:19;10.10;;;2.03;;
76765;SDS011;65707;52.362;6.588;2024-03-25T13:42:44;9.77;;;1.50;;
76765;SDS011;65707;52.362;6.588;2024-03-25T13:45:10;8.30;;;1.35;;
76765;SDS011;65707;52.362;6.588;2024-03-25T13:47:36;9.57;;;1.60;;
76765;SDS011;65707;52.362;6.588;2024-03-25T13:50:02;7.47;;;1.17;;
76765;SDS011;65707;52.362;6.588;2024-03-25T13:52:28;7.65;;;1.80;;
76765;SDS011;65707;52.362;6.588;2024-03-25T13:54:54;9.20;;;1.90;;
76765;SDS011;65707;52.362;6.588;2024-03-25T13:57:21;8.98;;;1.75;;
76765;SDS011;65707;52.362;6.588;2024-03-25T13:59:47;7.35;;;1.45;;
76765;SDS011;65707;52.362;6.588;2024-03-25T14:02:13;8.70;;;1.45;;
76765;SDS011;65707;52.362;6.588;2024-03-25T14:04:39;10.23;;;1.27;;
76765;SDS011;65707;52.362;6.588;2024-03-25T14:07:04;7.82;;;1.80;;
76765;SDS011;65707;52.362;6.588;2024-03-25T14:09:30;7.50;;;1.38;;
76765;SDS011;65707;52.362;6.588;2024-03-25T14:11:56;9.32;;;1.65;;
76765;SDS011;65707;52.362;6.588;2024-03-25T14:14:23;9.32;;;1.60;;
76765;SDS011;65707;52.362;6.588;2024-03-25T14:16:49;9.13;;;1.73;;
76765;SDS011;65707;52.362;6.588;2024-03-25T14:19:15;8.32;;;1.20;;
76765;SDS011;65707;52.362;6.588;2024-03-25T14:21:41;8.73;;;1.38;;
76765;SDS011;65707;52.362;6.588;2024-03-25T14:24:07;8.32;;;1.40;;
76765;SDS011;65707;52.362;6.588;2024-03-25T14:26:33;7.70;;;1.17;;
76765;SDS011;65707;52.362;6.588;2024-03-25T14:28:59;11.05;;;1.33;;
76765;SDS011;65707;52.362;6.588;2024-03-25T14:31:26;8.82;;;1.40;;
76765;SDS011;65707;52.362;6.588;2024-03-25T14:33:53;8.60;;;1.38;;
76765;SDS011;65707;52.362;6.588;2024-03-25T14:36:19;9.13;;;1.60;;